Terminal Aerodrome Forecast
Issued by NWS

Home | Current Version | Previous Version | Text Only | Print | Product List | Glossary On
Versions: 1 2 3 4 5 6 7 8 9 10 11 12 13 14
000
FTUS43 KDMX 192340
TAFMCW
TAF
KMCW 192340Z 2000/2024 13009KT P6SM SKC
     FM200800 16010KT P6SM BKN021
     FM201100 16011KT 4SM BR VCSH OVC008
     FM201200 15011G16KT 1SM -RA BR VCTS OVC005CB
     FM201700 18012G20KT 4SM BR VCSH SCT003 OVC011
     FM202000 22012G18KT P6SM SCT011 BKN090=

USA.gov is the U.S. government's official web portal to all federal, state and local government web resources and services.